BCS881 EKCH-LKPR
Flight info
| Callsign | BCS881 |
|---|---|
| Flight time | 1h 1m |
| Altitude | 37000 |
| Route | SALLO M44 KOGIM M602 USEDU DCT LUROS M725 HDO DCT GOLOP |
| Aircraft | A310/H-SDFGHIM1RTUWXY/LB1 |
Departure
| Time | 2026-05-05 17:15 |
|---|---|
| Airport | Copenhagen Kastrup Airport (EKCH) |
Arrival
| Time | 2026-05-05 18:16 |
|---|---|
| Airport | Václav Havel Airport Prague (LKPR) |
| Time | Latitude | Longitude | Altitude | Speed | Heading |
|---|---|---|---|---|---|
| 2026-05-05 16:54 | 55.61944 | 12.66729 | 22 ft | 0 kts | 349° |
| 2026-05-05 17:04 | 55.61931 | 12.66733 | 25 ft | 3 kts | 349° |
| 2026-05-05 17:05 | 55.61912 | 12.66739 | 26 ft | 3 kts | 349° |
| 2026-05-05 17:05 | 55.61894 | 12.66749 | 26 ft | 3 kts | 305° |
| 2026-05-05 17:05 | 55.61887 | 12.66778 | 26 ft | 3 kts | 288° |
| 2026-05-05 17:05 | 55.61884 | 12.66798 | 25 ft | 0 kts | 263° |
| 2026-05-05 17:08 | 55.61880 | 12.66766 | 25 ft | 9 kts | 255° |
| 2026-05-05 17:08 | 55.61863 | 12.66648 | 22 ft | 15 kts | 258° |
| 2026-05-05 17:08 | 55.61838 | 12.66462 | 26 ft | 10 kts | 245° |
| 2026-05-05 17:08 | 55.61800 | 12.66417 | 27 ft | 5 kts | 196° |
| 2026-05-05 17:09 | 55.61772 | 12.66404 | 28 ft | 4 kts | 193° |
| 2026-05-05 17:09 | 55.61691 | 12.66342 | 27 ft | 21 kts | 224° |
| 2026-05-05 17:09 | 55.61660 | 12.66177 | 27 ft | 8 kts | 243° |
| 2026-05-05 17:09 | 55.61643 | 12.66038 | 29 ft | 15 kts | 283° |
| 2026-05-05 17:10 | 55.61690 | 12.65876 | 29 ft | 13 kts | 304° |
| 2026-05-05 17:10 | 55.61750 | 12.65720 | 27 ft | 17 kts | 303° |
| 2026-05-05 17:10 | 55.61835 | 12.65491 | 27 ft | 26 kts | 303° |
| 2026-05-05 17:10 | 55.61938 | 12.65204 | 26 ft | 27 kts | 302° |
| 2026-05-05 17:11 | 55.62002 | 12.64982 | 28 ft | 15 kts | 261° |
| 2026-05-05 17:11 | 55.61930 | 12.64859 | 25 ft | 19 kts | 212° |
| 2026-05-05 17:11 | 55.61839 | 12.64754 | 26 ft | 27 kts | 214° |
| 2026-05-05 17:11 | 55.61687 | 12.64579 | 28 ft | 26 kts | 213° |
| 2026-05-05 17:12 | 55.61483 | 12.64347 | 29 ft | 26 kts | 213° |
| 2026-05-05 17:12 | 55.61380 | 12.64228 | 23 ft | 27 kts | 212° |
| 2026-05-05 17:12 | 55.61225 | 12.64049 | 22 ft | 27 kts | 212° |
| 2026-05-05 17:12 | 55.61069 | 12.63868 | 27 ft | 31 kts | 213° |
| 2026-05-05 17:13 | 55.60883 | 12.63656 | 26 ft | 29 kts | 214° |
| 2026-05-05 17:13 | 55.60768 | 12.63624 | 29 ft | 14 kts | 139° |
| 2026-05-05 17:13 | 55.60709 | 12.63754 | 30 ft | 13 kts | 127° |
| 2026-05-05 17:13 | 55.60694 | 12.63891 | 32 ft | 11 kts | 64° |
| 2026-05-05 17:14 | 55.60724 | 12.63949 | 32 ft | 0 kts | 42° |
| 2026-05-05 17:14 | 55.60729 | 12.63957 | 32 ft | 5 kts | 43° |
| 2026-05-05 17:14 | 55.60835 | 12.64122 | 32 ft | 49 kts | 40° |
| 2026-05-05 17:14 | 55.61265 | 12.64785 | 29 ft | 115 kts | 40° |
| 2026-05-05 17:15 | 55.62015 | 12.65929 | 166 ft | 157 kts | 41° |
| 2026-05-05 17:15 | 55.62845 | 12.67266 | 715 ft | 165 kts | 40° |
| 2026-05-05 17:15 | 55.63684 | 12.68667 | 1452 ft | 167 kts | 41° |
| 2026-05-05 17:15 | 55.64548 | 12.70106 | 1776 ft | 176 kts | 41° |
| 2026-05-05 17:16 | 55.65476 | 12.71615 | 2393 ft | 186 kts | 39° |
| 2026-05-05 17:16 | 55.66500 | 12.73190 | 2853 ft | 203 kts | 39° |
| 2026-05-05 17:16 | 55.67600 | 12.74829 | 3502 ft | 210 kts | 38° |
| 2026-05-05 17:16 | 55.68744 | 12.76489 | 4125 ft | 217 kts | 37° |
| 2026-05-05 17:17 | 55.69722 | 12.78580 | 4744 ft | 232 kts | 66° |
| 2026-05-05 17:17 | 55.69853 | 12.81531 | 5383 ft | 257 kts | 101° |
| 2026-05-05 17:17 | 55.69057 | 12.84445 | 5948 ft | 264 kts | 121° |
| 2026-05-05 17:17 | 55.68070 | 12.87117 | 6614 ft | 261 kts | 122° |
| 2026-05-05 17:18 | 55.67056 | 12.89878 | 7252 ft | 272 kts | 123° |
| 2026-05-05 17:18 | 55.66009 | 12.92691 | 7862 ft | 272 kts | 133° |
| 2026-05-05 17:18 | 55.64471 | 12.94479 | 8590 ft | 266 kts | 168° |
| 2026-05-05 17:18 | 55.62670 | 12.94487 | 9320 ft | 261 kts | 195° |
| 2026-05-05 17:19 | 55.60792 | 12.93954 | 9706 ft | 286 kts | 188° |
| 2026-05-05 17:19 | 55.58754 | 12.93998 | 9835 ft | 302 kts | 177° |
| 2026-05-05 17:19 | 55.56665 | 12.94669 | 9979 ft | 309 kts | 169° |
| 2026-05-05 17:19 | 55.54608 | 12.95738 | 10383 ft | 309 kts | 165° |
| 2026-05-05 17:20 | 55.52567 | 12.97019 | 11061 ft | 313 kts | 163° |
| 2026-05-05 17:20 | 55.50515 | 12.98424 | 11832 ft | 318 kts | 162° |
| 2026-05-05 17:20 | 55.48453 | 12.99901 | 12448 ft | 327 kts | 162° |
| 2026-05-05 17:20 | 55.46337 | 13.01419 | 12713 ft | 329 kts | 163° |
| 2026-05-05 17:21 | 55.44211 | 13.02908 | 13015 ft | 327 kts | 163° |
| 2026-05-05 17:21 | 55.42086 | 13.04400 | 13582 ft | 327 kts | 163° |
| 2026-05-05 17:21 | 55.39969 | 13.05898 | 14212 ft | 331 kts | 163° |
| 2026-05-05 17:22 | 55.35666 | 13.08980 | 15481 ft | 337 kts | 163° |
| 2026-05-05 17:22 | 55.33484 | 13.10556 | 16132 ft | 341 kts | 163° |
| 2026-05-05 17:22 | 55.31283 | 13.12120 | 16811 ft | 343 kts | 164° |
| 2026-05-05 17:22 | 55.29059 | 13.13671 | 17480 ft | 346 kts | 164° |
| 2026-05-05 17:23 | 55.26800 | 13.15250 | 18175 ft | 350 kts | 164° |
| 2026-05-05 17:23 | 55.24523 | 13.16850 | 18794 ft | 353 kts | 164° |
| 2026-05-05 17:23 | 55.22251 | 13.18452 | 19399 ft | 356 kts | 164° |
| 2026-05-05 17:23 | 55.19926 | 13.20095 | 20053 ft | 359 kts | 164° |
| 2026-05-05 17:24 | 55.17612 | 13.21731 | 20696 ft | 363 kts | 164° |
| 2026-05-05 17:24 | 55.15246 | 13.23387 | 21370 ft | 366 kts | 165° |
| 2026-05-05 17:24 | 55.12881 | 13.25008 | 22052 ft | 369 kts | 165° |
| 2026-05-05 17:24 | 55.10480 | 13.26681 | 22728 ft | 373 kts | 165° |
| 2026-05-05 17:25 | 55.08055 | 13.28338 | 23438 ft | 377 kts | 165° |
| 2026-05-05 17:25 | 55.06424 | 13.29476 | 23847 ft | 379 kts | 165° |
| 2026-05-05 17:25 | 55.03128 | 13.31743 | 24651 ft | 384 kts | 165° |
| 2026-05-05 17:25 | 55.00610 | 13.33482 | 25281 ft | 388 kts | 165° |
| 2026-05-05 17:26 | 54.98126 | 13.35207 | 25912 ft | 390 kts | 165° |
| 2026-05-05 17:26 | 54.95607 | 13.36974 | 26584 ft | 388 kts | 165° |
| 2026-05-05 17:26 | 54.93113 | 13.38742 | 27247 ft | 387 kts | 165° |
| 2026-05-05 17:26 | 54.90605 | 13.40240 | 27914 ft | 378 kts | 175° |
| 2026-05-05 17:27 | 54.87992 | 13.41022 | 28396 ft | 380 kts | 180° |
| 2026-05-05 17:27 | 54.85354 | 13.41573 | 28803 ft | 387 kts | 181° |
| 2026-05-05 17:27 | 54.82658 | 13.42156 | 29142 ft | 396 kts | 180° |
| 2026-05-05 17:27 | 54.79879 | 13.42828 | 29443 ft | 404 kts | 179° |
| 2026-05-05 17:28 | 54.77132 | 13.43560 | 29713 ft | 403 kts | 179° |
| 2026-05-05 17:28 | 54.74343 | 13.44371 | 30016 ft | 401 kts | 179° |
| 2026-05-05 17:28 | 54.71621 | 13.45364 | 30278 ft | 404 kts | 174° |
| 2026-05-05 17:28 | 54.68876 | 13.46545 | 30544 ft | 402 kts | 175° |
| 2026-05-05 17:29 | 54.66166 | 13.47524 | 30923 ft | 399 kts | 178° |
| 2026-05-05 17:29 | 54.63426 | 13.48326 | 31457 ft | 398 kts | 180° |
| 2026-05-05 17:29 | 54.60717 | 13.49034 | 31975 ft | 397 kts | 180° |
| 2026-05-05 17:29 | 54.57981 | 13.49728 | 32534 ft | 397 kts | 180° |
| 2026-05-05 17:30 | 54.55249 | 13.50415 | 33083 ft | 396 kts | 180° |
| 2026-05-05 17:30 | 54.52517 | 13.51113 | 33582 ft | 398 kts | 179° |
| 2026-05-05 17:30 | 54.49764 | 13.51853 | 33791 ft | 405 kts | 180° |
| 2026-05-05 17:30 | 54.46952 | 13.52587 | 33997 ft | 412 kts | 180° |
| 2026-05-05 17:31 | 54.44098 | 13.53326 | 34176 ft | 419 kts | 179° |
| 2026-05-05 17:31 | 54.41195 | 13.54085 | 34371 ft | 426 kts | 180° |
| 2026-05-05 17:31 | 54.38248 | 13.54838 | 34549 ft | 432 kts | 179° |
| 2026-05-05 17:31 | 54.35250 | 13.55623 | 34726 ft | 431 kts | 179° |
| 2026-05-05 17:32 | 54.32293 | 13.56398 | 34848 ft | 431 kts | 179° |
| 2026-05-05 17:32 | 54.26352 | 13.57937 | 34897 ft | 431 kts | 179° |
| 2026-05-05 17:33 | 54.20431 | 13.59471 | 34890 ft | 427 kts | 179° |
| 2026-05-05 17:33 | 54.14600 | 13.60970 | 34903 ft | 425 kts | 179° |
| 2026-05-05 17:34 | 54.08737 | 13.62488 | 34918 ft | 426 kts | 179° |
| 2026-05-05 17:34 | 54.02863 | 13.63984 | 34908 ft | 425 kts | 179° |
| 2026-05-05 17:34 | 53.99954 | 13.64740 | 35093 ft | 422 kts | 179° |
| 2026-05-05 17:35 | 53.97084 | 13.65468 | 35412 ft | 421 kts | 179° |
| 2026-05-05 17:35 | 53.94165 | 13.66181 | 35742 ft | 423 kts | 179° |
| 2026-05-05 17:35 | 53.91254 | 13.66880 | 36080 ft | 424 kts | 179° |
| 2026-05-05 17:35 | 53.88318 | 13.67567 | 36422 ft | 425 kts | 179° |
| 2026-05-05 17:36 | 53.85402 | 13.68276 | 36722 ft | 427 kts | 178° |
| 2026-05-05 17:36 | 53.82427 | 13.69010 | 36834 ft | 429 kts | 178° |
| 2026-05-05 17:36 | 53.79481 | 13.69734 | 36868 ft | 431 kts | 178° |
| 2026-05-05 17:37 | 53.73496 | 13.71211 | 36885 ft | 435 kts | 178° |
| 2026-05-05 17:37 | 53.67528 | 13.72709 | 36880 ft | 435 kts | 178° |
| 2026-05-05 17:38 | 53.61533 | 13.74233 | 36888 ft | 438 kts | 177° |
| 2026-05-05 17:38 | 53.55484 | 13.75741 | 36887 ft | 438 kts | 177° |
| 2026-05-05 17:39 | 53.49466 | 13.77239 | 36884 ft | 438 kts | 177° |
| 2026-05-05 17:39 | 53.43440 | 13.78740 | 36866 ft | 437 kts | 177° |
| 2026-05-05 17:40 | 53.37413 | 13.80252 | 36874 ft | 439 kts | 178° |
| 2026-05-05 17:40 | 53.31393 | 13.81744 | 36877 ft | 439 kts | 177° |
| 2026-05-05 17:41 | 53.25359 | 13.83227 | 36877 ft | 439 kts | 177° |
| 2026-05-05 17:41 | 53.19326 | 13.84710 | 36866 ft | 439 kts | 177° |
| 2026-05-05 17:42 | 53.13253 | 13.86210 | 36854 ft | 437 kts | 178° |
| 2026-05-05 17:42 | 53.07249 | 13.87692 | 36854 ft | 437 kts | 178° |
| 2026-05-05 17:43 | 53.01217 | 13.89165 | 36853 ft | 439 kts | 177° |
| 2026-05-05 17:43 | 52.95206 | 13.90622 | 36855 ft | 438 kts | 177° |
| 2026-05-05 17:44 | 52.89153 | 13.92084 | 36838 ft | 437 kts | 177° |
| 2026-05-05 17:44 | 52.83141 | 13.93547 | 36842 ft | 435 kts | 178° |
| 2026-05-05 17:45 | 52.77167 | 13.95004 | 36846 ft | 435 kts | 178° |
| 2026-05-05 17:45 | 52.71193 | 13.96439 | 36840 ft | 435 kts | 177° |
| 2026-05-05 17:46 | 52.65184 | 13.97876 | 36836 ft | 436 kts | 177° |
| 2026-05-05 17:46 | 52.59193 | 13.99308 | 36832 ft | 435 kts | 177° |
| 2026-05-05 17:47 | 52.53203 | 14.00740 | 36833 ft | 435 kts | 178° |
| 2026-05-05 17:47 | 52.47204 | 14.02178 | 36831 ft | 435 kts | 178° |
| 2026-05-05 17:48 | 52.41200 | 14.03613 | 36794 ft | 435 kts | 177° |
| 2026-05-05 17:48 | 52.35227 | 14.05005 | 36815 ft | 435 kts | 177° |
| 2026-05-05 17:49 | 52.29243 | 14.06441 | 36817 ft | 435 kts | 177° |
| 2026-05-05 17:49 | 52.23264 | 14.07838 | 36817 ft | 435 kts | 177° |
| 2026-05-05 17:50 | 52.17297 | 14.09237 | 36807 ft | 435 kts | 177° |
| 2026-05-05 17:50 | 52.11304 | 14.10627 | 36813 ft | 434 kts | 177° |
| 2026-05-05 17:51 | 52.05332 | 14.11993 | 36683 ft | 436 kts | 177° |
| 2026-05-05 17:51 | 52.02334 | 14.12674 | 36295 ft | 439 kts | 177° |
| 2026-05-05 17:51 | 51.99291 | 14.13362 | 35766 ft | 440 kts | 177° |
| 2026-05-05 17:51 | 51.96256 | 14.14049 | 35253 ft | 440 kts | 177° |
| 2026-05-05 17:52 | 51.93220 | 14.14759 | 34662 ft | 440 kts | 176° |
| 2026-05-05 17:52 | 51.90192 | 14.15473 | 34053 ft | 438 kts | 176° |
| 2026-05-05 17:52 | 51.87195 | 14.16137 | 33416 ft | 435 kts | 176° |
| 2026-05-05 17:52 | 51.84207 | 14.16819 | 32763 ft | 432 kts | 176° |
| 2026-05-05 17:53 | 51.81253 | 14.17508 | 32120 ft | 429 kts | 176° |
| 2026-05-05 17:53 | 51.78299 | 14.18192 | 31489 ft | 426 kts | 176° |
| 2026-05-05 17:53 | 51.75398 | 14.18856 | 30869 ft | 423 kts | 176° |
| 2026-05-05 17:53 | 51.72507 | 14.19509 | 30248 ft | 416 kts | 176° |
| 2026-05-05 17:54 | 51.69646 | 14.20147 | 29597 ft | 409 kts | 176° |
| 2026-05-05 17:54 | 51.66862 | 14.20763 | 28887 ft | 403 kts | 176° |
| 2026-05-05 17:54 | 51.64090 | 14.21373 | 28191 ft | 397 kts | 176° |
| 2026-05-05 17:54 | 51.61385 | 14.21965 | 27512 ft | 393 kts | 175° |
| 2026-05-05 17:55 | 51.58702 | 14.22595 | 26906 ft | 388 kts | 175° |
| 2026-05-05 17:55 | 51.56025 | 14.23198 | 26298 ft | 383 kts | 176° |
| 2026-05-05 17:55 | 51.53416 | 14.23799 | 25724 ft | 379 kts | 175° |
| 2026-05-05 17:55 | 51.50838 | 14.24382 | 25160 ft | 374 kts | 176° |
| 2026-05-05 17:56 | 51.48269 | 14.24971 | 24598 ft | 371 kts | 175° |
| 2026-05-05 17:56 | 51.45725 | 14.25544 | 24058 ft | 367 kts | 175° |
| 2026-05-05 17:56 | 51.43208 | 14.26123 | 23526 ft | 363 kts | 175° |
| 2026-05-05 17:56 | 51.40735 | 14.26676 | 22914 ft | 360 kts | 175° |
| 2026-05-05 17:57 | 51.38273 | 14.27224 | 22297 ft | 356 kts | 175° |
| 2026-05-05 17:57 | 51.35837 | 14.27772 | 21745 ft | 351 kts | 175° |
| 2026-05-05 17:57 | 51.33420 | 14.28308 | 21199 ft | 347 kts | 175° |
| 2026-05-05 17:57 | 51.31029 | 14.28830 | 20663 ft | 344 kts | 175° |
| 2026-05-05 17:58 | 51.28683 | 14.29336 | 20134 ft | 343 kts | 175° |
| 2026-05-05 17:58 | 51.26323 | 14.29836 | 19620 ft | 341 kts | 175° |
| 2026-05-05 17:58 | 51.23984 | 14.30337 | 19139 ft | 339 kts | 174° |
| 2026-05-05 17:58 | 51.21636 | 14.30876 | 18678 ft | 338 kts | 174° |
| 2026-05-05 17:59 | 51.19312 | 14.31395 | 18231 ft | 337 kts | 174° |
| 2026-05-05 17:59 | 51.17002 | 14.31909 | 17753 ft | 336 kts | 174° |
| 2026-05-05 17:59 | 51.14692 | 14.32427 | 17232 ft | 335 kts | 174° |
| 2026-05-05 17:59 | 51.12384 | 14.32935 | 16748 ft | 333 kts | 174° |
| 2026-05-05 18:00 | 51.10097 | 14.33434 | 16259 ft | 332 kts | 174° |
| 2026-05-05 18:00 | 51.08581 | 14.33763 | 15931 ft | 331 kts | 174° |
| 2026-05-05 18:00 | 51.05543 | 14.34427 | 15293 ft | 329 kts | 174° |
| 2026-05-05 18:00 | 51.03281 | 14.34921 | 14816 ft | 327 kts | 174° |
| 2026-05-05 18:01 | 51.01027 | 14.35408 | 14365 ft | 325 kts | 174° |
| 2026-05-05 18:01 | 50.99554 | 14.35723 | 14061 ft | 324 kts | 174° |
| 2026-05-05 18:01 | 50.97329 | 14.36194 | 13629 ft | 322 kts | 173° |
| 2026-05-05 18:01 | 50.94374 | 14.36866 | 12962 ft | 319 kts | 174° |
| 2026-05-05 18:02 | 50.92196 | 14.37031 | 12463 ft | 310 kts | 191° |
| 2026-05-05 18:02 | 50.90191 | 14.35956 | 11990 ft | 304 kts | 204° |
| 2026-05-05 18:02 | 50.88898 | 14.34996 | 11628 ft | 302 kts | 205° |
| 2026-05-05 18:02 | 50.87031 | 14.33578 | 11156 ft | 298 kts | 205° |
| 2026-05-05 18:03 | 50.85119 | 14.32441 | 10687 ft | 295 kts | 188° |
| 2026-05-05 18:03 | 50.83065 | 14.32202 | 10221 ft | 293 kts | 182° |
| 2026-05-05 18:03 | 50.81043 | 14.32229 | 9933 ft | 287 kts | 171° |
| 2026-05-05 18:03 | 50.79131 | 14.33035 | 9846 ft | 287 kts | 162° |
| 2026-05-05 18:04 | 50.77222 | 14.34077 | 9760 ft | 290 kts | 161° |
| 2026-05-05 18:04 | 50.75337 | 14.35129 | 9770 ft | 288 kts | 161° |
| 2026-05-05 18:04 | 50.73447 | 14.36180 | 9761 ft | 290 kts | 163° |
| 2026-05-05 18:04 | 50.71471 | 14.36425 | 9764 ft | 287 kts | 192° |
| 2026-05-05 18:05 | 50.69636 | 14.35163 | 9787 ft | 287 kts | 209° |
| 2026-05-05 18:05 | 50.67939 | 14.33536 | 9750 ft | 284 kts | 210° |
| 2026-05-05 18:05 | 50.66251 | 14.31988 | 9750 ft | 276 kts | 208° |
| 2026-05-05 18:05 | 50.64563 | 14.30530 | 9768 ft | 277 kts | 207° |
| 2026-05-05 18:06 | 50.62853 | 14.29113 | 9745 ft | 280 kts | 207° |
| 2026-05-05 18:06 | 50.61704 | 14.28168 | 9753 ft | 278 kts | 207° |
| 2026-05-05 18:06 | 50.59424 | 14.26298 | 9748 ft | 277 kts | 207° |
| 2026-05-05 18:06 | 50.57720 | 14.24926 | 9752 ft | 276 kts | 206° |
| 2026-05-05 18:07 | 50.56013 | 14.23561 | 9754 ft | 274 kts | 207° |
| 2026-05-05 18:07 | 50.54357 | 14.22225 | 9744 ft | 265 kts | 206° |
| 2026-05-05 18:07 | 50.52715 | 14.20912 | 9746 ft | 265 kts | 206° |
| 2026-05-05 18:07 | 50.51051 | 14.19579 | 9688 ft | 270 kts | 206° |
| 2026-05-05 18:08 | 50.49363 | 14.18218 | 9352 ft | 269 kts | 206° |
| 2026-05-05 18:08 | 50.47723 | 14.16908 | 8874 ft | 264 kts | 206° |
| 2026-05-05 18:08 | 50.46109 | 14.15614 | 8396 ft | 258 kts | 206° |
| 2026-05-05 18:08 | 50.44515 | 14.14341 | 7944 ft | 254 kts | 206° |
| 2026-05-05 18:09 | 50.42956 | 14.13078 | 7515 ft | 250 kts | 206° |
| 2026-05-05 18:09 | 50.41422 | 14.11819 | 7133 ft | 252 kts | 206° |
| 2026-05-05 18:09 | 50.39876 | 14.10546 | 6884 ft | 249 kts | 205° |
| 2026-05-05 18:09 | 50.38354 | 14.09272 | 6756 ft | 245 kts | 205° |
| 2026-05-05 18:10 | 50.36845 | 14.08035 | 6559 ft | 251 kts | 205° |
| 2026-05-05 18:10 | 50.35253 | 14.06781 | 6191 ft | 255 kts | 205° |
| 2026-05-05 18:10 | 50.33697 | 14.05441 | 5802 ft | 257 kts | 205° |
| 2026-05-05 18:10 | 50.32123 | 14.04166 | 5377 ft | 252 kts | 196° |
| 2026-05-05 18:11 | 50.30451 | 14.03906 | 5114 ft | 239 kts | 170° |
| 2026-05-05 18:11 | 50.28826 | 14.04323 | 4838 ft | 234 kts | 166° |
| 2026-05-05 18:11 | 50.27250 | 14.04779 | 4651 ft | 229 kts | 166° |
| 2026-05-05 18:11 | 50.25672 | 14.05186 | 4506 ft | 231 kts | 169° |
| 2026-05-05 18:12 | 50.24070 | 14.05516 | 4331 ft | 234 kts | 170° |
| 2026-05-05 18:12 | 50.22450 | 14.05694 | 4173 ft | 236 kts | 176° |
| 2026-05-05 18:12 | 50.20818 | 14.05701 | 4055 ft | 234 kts | 177° |
| 2026-05-05 18:12 | 50.19296 | 14.06201 | 3924 ft | 212 kts | 141° |
| 2026-05-05 18:13 | 50.18422 | 14.07887 | 3981 ft | 194 kts | 117° |
| 2026-05-05 18:13 | 50.17752 | 14.09722 | 3626 ft | 198 kts | 116° |
| 2026-05-05 18:13 | 50.17050 | 14.11577 | 3205 ft | 198 kts | 120° |
| 2026-05-05 18:13 | 50.16246 | 14.13241 | 2924 ft | 186 kts | 123° |
| 2026-05-05 18:14 | 50.15483 | 14.14799 | 2688 ft | 176 kts | 120° |
| 2026-05-05 18:14 | 50.14761 | 14.16291 | 2484 ft | 168 kts | 120° |
| 2026-05-05 18:14 | 50.14088 | 14.17696 | 2327 ft | 159 kts | 120° |
| 2026-05-05 18:14 | 50.13442 | 14.19069 | 2078 ft | 154 kts | 120° |
| 2026-05-05 18:15 | 50.12819 | 14.20385 | 1880 ft | 148 kts | 121° |
| 2026-05-05 18:15 | 50.12214 | 14.21626 | 1684 ft | 140 kts | 122° |
| 2026-05-05 18:15 | 50.11639 | 14.22823 | 1474 ft | 135 kts | 124° |
| 2026-05-05 18:15 | 50.11091 | 14.23946 | 1275 ft | 127 kts | 126° |
| 2026-05-05 18:16 | 50.10558 | 14.25040 | 1188 ft | 128 kts | 125° |
| 2026-05-05 18:16 | 50.10107 | 14.26002 | 1193 ft | 85 kts | 136° |
| 2026-05-05 18:16 | 50.09885 | 14.26444 | 1205 ft | 27 kts | 118° |
| 2026-05-05 18:16 | 50.09877 | 14.26641 | 1213 ft | 13 kts | 82° |
| 2026-05-05 18:17 | 50.09889 | 14.26767 | 1214 ft | 10 kts | 81° |
| 2026-05-05 18:17 | 50.09897 | 14.26859 | 1216 ft | 7 kts | 83° |
| 2026-05-05 18:17 | 50.09902 | 14.26917 | 1217 ft | 5 kts | 82° |
| 2026-05-05 18:17 | 50.09906 | 14.26961 | 1218 ft | 3 kts | 80° |
| 2026-05-05 18:18 | 50.09910 | 14.26994 | 1218 ft | 3 kts | 81° |
| 2026-05-05 18:18 | 50.09911 | 14.27005 | 1218 ft | 1 kts | 81° |
| 2026-05-05 18:18 | 50.09912 | 14.27017 | 1218 ft | 2 kts | 81° |
| 2026-05-05 18:18 | 50.09915 | 14.27104 | 1218 ft | 10 kts | 90° |
| 2026-05-05 18:19 | 50.09952 | 14.27112 | 1216 ft | 11 kts | 319° |
| 2026-05-05 18:19 | 50.10005 | 14.27004 | 1215 ft | 15 kts | 308° |
| 2026-05-05 18:19 | 50.10072 | 14.26866 | 1214 ft | 17 kts | 306° |
| 2026-05-05 18:19 | 50.10146 | 14.26708 | 1210 ft | 19 kts | 309° |
| 2026-05-05 18:20 | 50.10235 | 14.26529 | 1204 ft | 23 kts | 307° |
| 2026-05-05 18:20 | 50.10335 | 14.26323 | 1200 ft | 24 kts | 308° |
| 2026-05-05 18:20 | 50.10429 | 14.26128 | 1197 ft | 17 kts | 306° |
| 2026-05-05 18:20 | 50.10498 | 14.25985 | 1195 ft | 18 kts | 307° |
| 2026-05-05 18:21 | 50.10567 | 14.25828 | 1190 ft | 15 kts | 304° |
| 2026-05-05 18:21 | 50.10653 | 14.25839 | 1188 ft | 15 kts | 34° |
| 2026-05-05 18:21 | 50.10746 | 14.25937 | 1176 ft | 17 kts | 37° |
| 2026-05-05 18:21 | 50.10848 | 14.26047 | 1176 ft | 19 kts | 35° |
| 2026-05-05 18:22 | 50.10963 | 14.26171 | 1173 ft | 21 kts | 36° |
| 2026-05-05 18:22 | 50.11076 | 14.26304 | 1170 ft | 17 kts | 59° |
| 2026-05-05 18:22 | 50.11075 | 14.26472 | 1174 ft | 14 kts | 97° |
| 2026-05-05 18:22 | 50.11084 | 14.26599 | 1174 ft | 12 kts | 62° |
| 2026-05-05 18:23 | 50.11130 | 14.26740 | 1175 ft | 16 kts | 66° |
| 2026-05-05 18:23 | 50.11174 | 14.26892 | 1178 ft | 15 kts | 65° |
| 2026-05-05 18:23 | 50.11221 | 14.27052 | 1175 ft | 19 kts | 65° |
| 2026-05-05 18:23 | 50.11277 | 14.27241 | 1175 ft | 20 kts | 65° |
| 2026-05-05 18:24 | 50.11336 | 14.27434 | 1175 ft | 18 kts | 63° |
| 2026-05-05 18:24 | 50.11324 | 14.27559 | 1175 ft | 9 kts | 152° |
| 2026-05-05 18:24 | 50.11297 | 14.27578 | 1173 ft | 2 kts | 155° |
| 2026-05-05 18:24 | 50.11294 | 14.27581 | 1171 ft | 0 kts | 155° |